createdAt,value
2023-02-04T00:04:45.680Z,4.60
2023-02-04T00:07:16.370Z,5.05
2023-02-04T00:09:42.849Z,4.75
2023-02-04T00:12:10.767Z,4.13
2023-02-04T00:14:37.277Z,4.68
2023-02-04T00:17:11.570Z,5.43
2023-02-04T00:19:38.393Z,4.57
2023-02-04T00:22:05.151Z,4.82
2023-02-04T00:24:31.703Z,4.18
2023-02-04T00:27:03.680Z,4.47
2023-02-04T00:29:30.320Z,6.18
2023-02-04T00:31:57.319Z,4.90
2023-02-04T00:34:24.022Z,4.97
2023-02-04T00:36:54.430Z,4.65
2023-02-04T00:39:21.042Z,5.05
2023-02-04T00:41:47.593Z,4.32
2023-02-04T00:44:14.267Z,4.03
2023-02-04T00:46:44.207Z,4.53
2023-02-04T00:49:11.091Z,4.43
2023-02-04T00:51:39.433Z,4.88
2023-02-04T00:54:07.130Z,5.15
2023-02-04T00:56:36.589Z,5.03
2023-02-04T00:59:03.618Z,5.03
2023-02-04T01:01:30.838Z,4.57
2023-02-04T01:03:57.391Z,5.40
2023-02-04T01:06:25.554Z,5.32
2023-02-04T01:08:52.544Z,4.35
2023-02-04T01:11:19.598Z,5.10
2023-02-04T01:13:46.564Z,4.47
2023-02-04T01:16:16.407Z,4.63
2023-02-04T01:18:45.259Z,4.22
2023-02-04T01:21:11.854Z,4.60
2023-02-04T01:23:38.428Z,4.10
2023-02-04T01:26:09.295Z,4.18
2023-02-04T01:28:35.826Z,4.35
2023-02-04T01:31:02.514Z,4.45
2023-02-04T01:33:29.168Z,4.90
2023-02-04T01:36:00.033Z,4.03
2023-02-04T01:38:26.616Z,4.80
2023-02-04T01:40:53.412Z,4.35
2023-02-04T01:43:23.156Z,4.97
2023-02-04T01:45:51.950Z,4.68
2023-02-04T01:48:21.467Z,4.05
2023-02-04T01:50:49.929Z,4.40
2023-02-04T01:53:20.567Z,4.68
2023-02-04T01:55:50.639Z,4.78
2023-02-04T01:58:17.603Z,4.75
2023-02-04T02:00:44.866Z,4.38
2023-02-04T02:03:12.136Z,4.60
2023-02-04T02:05:46.460Z,4.93
2023-02-04T02:08:14.043Z,4.70
2023-02-04T02:10:43.933Z,4.88
2023-02-04T02:13:13.430Z,4.53
2023-02-04T02:15:42.026Z,5.28
2023-02-04T02:18:09.558Z,4.10
2023-02-04T02:20:37.069Z,4.88
2023-02-04T02:23:11.323Z,4.82
2023-02-04T02:25:42.766Z,5.22
2023-02-04T02:28:14.945Z,5.82
2023-02-04T02:30:45.688Z,5.32
2023-02-04T02:33:17.893Z,5.85
2023-02-04T02:35:49.286Z,5.47
2023-02-04T02:38:16.928Z,5.75
2023-02-04T02:40:44.174Z,4.82
2023-02-04T02:43:17.322Z,4.90
2023-02-04T02:45:48.721Z,6.75
2023-02-04T02:48:15.416Z,5.45
2023-02-04T02:50:43.099Z,5.22
2023-02-04T02:53:14.913Z,5.53
2023-02-04T02:55:46.977Z,5.68
2023-02-04T02:58:32.606Z,6.43
2023-02-04T03:01:01.543Z,5.60
2023-02-04T03:03:33.358Z,6.15
2023-02-04T03:06:15.278Z,6.20
2023-02-04T03:08:44.826Z,6.50
2023-02-04T03:11:11.638Z,6.97
2023-02-04T03:13:39.412Z,6.25
2023-02-04T03:16:08.176Z,6.43
2023-02-04T03:18:36.381Z,6.18
2023-02-04T03:21:04.954Z,5.90
2023-02-04T03:23:33.296Z,6.28
2023-02-04T03:26:01.848Z,6.45
2023-02-04T03:28:28.432Z,6.28
2023-02-04T03:30:56.090Z,6.18
2023-02-04T03:33:31.364Z,6.13
2023-02-04T03:36:00.989Z,6.75
2023-02-04T03:38:27.991Z,5.85
2023-02-04T03:40:54.627Z,5.88
2023-02-04T03:43:21.175Z,6.20
2023-02-04T03:45:52.459Z,6.63
2023-02-04T03:48:19.042Z,6.22
2023-02-04T03:50:45.841Z,6.10
2023-02-04T03:53:13.568Z,6.63
2023-02-04T03:55:41.558Z,6.38
2023-02-04T03:58:08.136Z,6.50
2023-02-04T04:00:34.780Z,5.90
2023-02-04T04:03:01.639Z,6.15
2023-02-04T04:05:31.421Z,6.93
2023-02-04T04:07:58.243Z,6.80
2023-02-04T04:10:26.630Z,6.78
2023-02-04T04:12:53.175Z,7.18
2023-02-04T04:15:19.805Z,6.03
2023-02-04T04:17:49.837Z,7.05
2023-02-04T04:20:16.563Z,8.00
2023-02-04T04:22:43.087Z,6.60
2023-02-04T04:25:09.629Z,6.18
2023-02-04T04:27:39.409Z,6.03
2023-02-04T04:30:06.165Z,6.57
2023-02-04T04:32:32.730Z,6.25
2023-02-04T04:34:59.275Z,5.88
2023-02-04T04:37:30.122Z,6.28
2023-02-04T04:39:56.688Z,6.55
2023-02-04T04:42:23.272Z,7.20
2023-02-04T04:44:49.790Z,6.88
2023-02-04T04:47:19.464Z,7.22
2023-02-04T04:49:46.059Z,7.70
2023-02-04T04:52:12.623Z,6.88
2023-02-04T04:54:39.215Z,7.60
2023-02-04T04:57:10.225Z,7.18
2023-02-04T04:59:36.749Z,7.63
2023-02-04T05:02:03.268Z,7.18
2023-02-04T05:04:29.853Z,6.75
2023-02-04T05:07:01.012Z,7.22
2023-02-04T05:09:27.616Z,7.68
2023-02-04T05:11:54.181Z,7.15
2023-02-04T05:14:20.825Z,7.53
2023-02-04T05:16:48.626Z,9.02
2023-02-04T05:19:15.145Z,7.38
2023-02-04T05:21:41.690Z,6.47
2023-02-04T05:24:08.262Z,6.45
2023-02-04T05:26:36.634Z,7.47
2023-02-04T05:29:03.395Z,6.78
2023-02-04T05:31:30.219Z,7.30
2023-02-04T05:33:56.737Z,7.75
2023-02-04T05:36:26.357Z,7.68
2023-02-04T05:38:52.999Z,7.88
2023-02-04T05:41:19.582Z,7.07
2023-02-04T05:43:46.154Z,7.53
2023-02-04T05:46:14.522Z,8.70
2023-02-04T05:48:41.120Z,7.53
2023-02-04T05:51:07.707Z,8.23
2023-02-04T05:53:34.240Z,7.05
2023-02-04T05:56:03.710Z,7.25
2023-02-04T05:58:33.473Z,7.30
2023-02-04T06:01:01.710Z,7.68
2023-02-04T06:03:29.344Z,6.55
2023-02-04T06:05:57.605Z,6.50
2023-02-04T06:08:24.408Z,5.97
2023-02-04T06:10:51.003Z,6.18
2023-02-04T06:13:17.562Z,7.05
2023-02-04T06:15:45.336Z,6.90
2023-02-04T06:18:12.172Z,6.95
2023-02-04T06:20:38.836Z,6.63
2023-02-04T06:23:05.359Z,6.70
2023-02-04T06:25:33.577Z,6.93
2023-02-04T06:28:00.200Z,7.68
2023-02-04T06:30:26.913Z,6.80
2023-02-04T06:32:53.647Z,6.63
2023-02-04T06:35:20.220Z,7.22
2023-02-04T06:37:48.915Z,6.68
2023-02-04T06:40:15.517Z,5.80
2023-02-04T06:42:42.052Z,6.30
2023-02-04T06:45:08.865Z,6.97
2023-02-04T06:47:37.456Z,8.30
2023-02-04T06:50:04.155Z,9.63
2023-02-04T06:52:30.795Z,9.18
2023-02-04T06:54:57.350Z,11.52
2023-02-04T06:57:25.352Z,12.85
2023-02-04T06:59:51.978Z,13.55
2023-02-04T07:02:18.671Z,13.40
2023-02-04T07:04:47.487Z,12.35
2023-02-04T07:07:18.312Z,15.13
2023-02-04T07:09:44.942Z,14.75
2023-02-04T07:12:11.474Z,14.38
2023-02-04T07:14:38.069Z,16.33
2023-02-04T07:17:07.684Z,15.43
2023-02-04T07:19:35.296Z,14.90
2023-02-04T07:22:03.066Z,15.38
2023-02-04T07:24:29.652Z,15.68
2023-02-04T07:27:00.791Z,15.73
2023-02-04T07:29:28.875Z,16.77
2023-02-04T07:31:55.619Z,15.88
2023-02-04T07:34:22.372Z,17.65
2023-02-04T07:36:50.503Z,15.68
2023-02-04T07:39:17.101Z,15.43
2023-02-04T07:41:43.708Z,17.17
2023-02-04T07:44:12.423Z,14.57
2023-02-04T07:46:43.157Z,17.02
2023-02-04T07:49:09.779Z,15.82
2023-02-04T07:51:36.338Z,15.60
2023-02-04T07:54:02.921Z,15.15
2023-02-04T07:56:31.339Z,16.55
2023-02-04T07:58:57.966Z,15.73
2023-02-04T08:01:24.536Z,15.93
2023-02-04T08:03:51.168Z,15.70
2023-02-04T08:06:19.344Z,15.73
2023-02-04T08:08:45.926Z,16.15
2023-02-04T08:11:12.420Z,16.83
2023-02-04T08:13:38.936Z,15.02
2023-02-04T08:16:10.075Z,16.95
2023-02-04T08:18:38.202Z,15.18
2023-02-04T08:21:06.326Z,15.98
2023-02-04T08:23:33.387Z,17.55
2023-02-04T08:26:06.223Z,16.13
2023-02-04T08:28:33.208Z,16.20
2023-02-04T08:31:00.159Z,16.25
2023-02-04T08:33:27.089Z,17.33
2023-02-04T08:35:56.425Z,15.57
2023-02-04T08:38:23.305Z,17.58
2023-02-04T08:40:50.301Z,17.00
2023-02-04T08:43:17.011Z,15.63
2023-02-04T08:45:47.645Z,16.45
2023-02-04T08:48:14.389Z,16.27
2023-02-04T08:50:42.156Z,15.20
2023-02-04T08:53:08.812Z,16.77
2023-02-04T08:55:41.961Z,16.50
2023-02-04T08:58:08.555Z,14.70
2023-02-04T09:00:35.556Z,15.70
2023-02-04T09:03:02.484Z,14.05
2023-02-04T09:05:54.205Z,14.77
2023-02-04T09:08:20.847Z,15.38
2023-02-04T09:10:47.579Z,14.20
2023-02-04T09:13:14.508Z,15.15
2023-02-04T09:15:44.794Z,15.02
2023-02-04T09:18:16.367Z,15.93
2023-02-04T09:20:44.453Z,14.20
2023-02-04T09:23:12.399Z,14.70
2023-02-04T09:25:42.321Z,14.75
2023-02-04T09:28:12.946Z,14.60
2023-02-04T09:30:40.860Z,14.70
2023-02-04T09:33:09.502Z,15.27
2023-02-04T09:36:01.653Z,15.02
2023-02-04T09:38:28.854Z,15.55
2023-02-04T09:41:00.037Z,14.00
2023-02-04T09:43:29.932Z,15.02
2023-02-04T09:45:59.253Z,13.13
2023-02-04T09:48:26.795Z,12.43
2023-02-04T09:51:06.650Z,13.45
2023-02-04T09:53:36.263Z,12.90
2023-02-04T09:56:06.365Z,13.60
2023-02-04T09:58:35.602Z,12.15
2023-02-04T10:01:17.023Z,12.43
2023-02-04T10:03:49.122Z,11.40
2023-02-04T10:06:23.872Z,12.48
2023-02-04T10:08:54.856Z,11.23
2023-02-04T10:11:23.841Z,11.27
2023-02-04T10:13:53.992Z,12.43
2023-02-04T10:16:31.885Z,11.43
2023-02-04T10:19:00.152Z,10.65
2023-02-04T10:21:29.442Z,10.80
2023-02-04T10:23:58.150Z,10.40
2023-02-04T10:26:34.132Z,10.75
2023-02-04T10:29:09.686Z,11.40
2023-02-04T10:31:43.467Z,11.85
2023-02-04T10:34:17.518Z,10.65
2023-02-04T10:36:52.574Z,9.88
2023-02-04T10:39:24.947Z,9.68
2023-02-04T10:41:54.071Z,10.95
2023-02-04T10:44:46.395Z,10.98
2023-02-04T10:47:31.253Z,8.15
2023-02-04T10:50:04.755Z,9.07
2023-02-04T10:52:40.015Z,8.93
2023-02-04T10:55:13.377Z,9.10
2023-02-04T10:57:46.394Z,10.40
2023-02-04T11:00:25.411Z,10.13
2023-02-04T11:03:12.447Z,9.88
2023-02-04T11:06:09.760Z,11.32
2023-02-04T11:08:38.354Z,9.75
2023-02-04T11:11:15.547Z,10.68
2023-02-04T11:13:51.001Z,10.48
2023-02-04T11:18:56.151Z,8.85
2023-02-04T11:21:28.204Z,10.82
2023-02-04T12:58:45.161Z,8.60
2023-02-04T13:01:11.977Z,7.88
2023-02-04T13:03:38.725Z,7.28
2023-02-04T13:06:08.393Z,7.57
2023-02-04T13:08:35.156Z,7.88
2023-02-04T13:11:01.775Z,7.70
2023-02-04T13:13:28.644Z,7.47
2023-02-04T13:15:59.473Z,8.50
2023-02-04T13:18:26.202Z,7.82
2023-02-04T13:20:52.840Z,8.25
2023-02-04T13:23:19.561Z,7.47
2023-02-04T13:25:50.526Z,9.00
2023-02-04T13:28:17.477Z,7.05
2023-02-04T13:30:44.207Z,8.70
2023-02-04T13:33:10.849Z,7.63
2023-02-04T13:35:41.384Z,7.05
2023-02-04T13:38:08.086Z,6.65
2023-02-04T13:40:34.813Z,7.43
2023-02-04T13:43:01.656Z,7.28
2023-02-04T13:45:30.387Z,6.32
2023-02-04T13:47:57.752Z,7.28
2023-02-04T13:50:24.387Z,7.45
2023-02-04T13:52:50.983Z,7.82
2023-02-04T13:55:17.824Z,7.25
2023-02-04T13:57:46.100Z,7.38
2023-02-04T14:00:16.989Z,7.43
2023-02-04T14:02:43.779Z,6.47
2023-02-04T14:05:10.457Z,6.35
2023-02-04T14:07:40.398Z,7.60
2023-02-04T14:10:07.845Z,6.25
2023-02-04T14:12:34.642Z,6.70
2023-02-04T14:15:01.401Z,6.30
2023-02-04T14:17:32.522Z,6.30
2023-02-04T14:19:59.163Z,7.30
2023-02-04T14:22:25.789Z,6.30
2023-02-04T14:24:52.541Z,6.38
2023-02-04T14:27:23.307Z,5.90
2023-02-04T14:29:49.935Z,7.18
2023-02-04T14:32:16.760Z,6.20
2023-02-04T14:34:43.376Z,6.95
2023-02-04T14:37:13.196Z,6.88
2023-02-04T14:39:41.172Z,5.88
2023-02-04T14:42:07.799Z,6.20
2023-02-04T14:44:34.461Z,6.40
2023-02-04T14:47:03.124Z,5.68
2023-02-04T14:49:29.790Z,6.43
2023-02-04T14:51:56.873Z,6.70
2023-02-04T14:54:23.951Z,6.38
2023-02-04T14:56:53.373Z,6.90
2023-02-04T14:59:20.287Z,6.43
2023-02-04T15:01:46.945Z,7.35
2023-02-04T15:04:13.904Z,6.35
2023-02-04T15:06:43.512Z,6.47
2023-02-04T15:09:10.130Z,6.30
2023-02-04T15:11:36.857Z,6.63
2023-02-04T15:14:04.109Z,6.13
2023-02-04T15:16:34.051Z,7.57
2023-02-04T15:19:00.756Z,6.15
2023-02-04T15:21:27.498Z,7.05
2023-02-04T15:23:55.154Z,6.07
2023-02-04T15:26:25.085Z,5.80
2023-02-04T15:28:51.810Z,5.60
2023-02-04T15:31:18.538Z,5.93
2023-02-04T15:33:45.189Z,6.57
2023-02-04T15:36:16.160Z,6.05
2023-02-04T15:38:42.976Z,5.90
2023-02-04T15:41:09.689Z,6.10
2023-02-04T15:43:36.463Z,6.35
2023-02-04T15:46:07.357Z,6.68
2023-02-04T15:48:34.116Z,8.18
2023-02-04T15:51:00.713Z,6.55
2023-02-04T15:53:27.329Z,5.75
2023-02-04T15:55:58.026Z,5.95
2023-02-04T15:58:24.637Z,5.88
2023-02-04T16:00:51.184Z,5.95
2023-02-04T16:03:17.728Z,5.57
2023-02-04T16:05:48.263Z,6.05
2023-02-04T16:08:14.839Z,6.43
2023-02-04T16:10:41.411Z,5.28
2023-02-04T16:13:07.954Z,5.72
2023-02-04T16:15:38.518Z,5.07
2023-02-04T16:18:05.219Z,5.38
2023-02-04T16:20:31.964Z,5.53
2023-02-04T16:22:58.971Z,5.00
2023-02-04T16:25:33.291Z,6.03
2023-02-04T16:28:00.122Z,5.90
2023-02-04T16:30:26.693Z,5.93
2023-02-04T16:32:53.226Z,5.85
2023-02-04T16:35:19.786Z,5.55
2023-02-04T16:37:47.959Z,6.05
2023-02-04T16:40:16.050Z,6.18
2023-02-04T16:42:42.584Z,5.82
2023-02-04T16:45:09.458Z,6.05
2023-02-04T16:47:40.359Z,5.95
2023-02-04T16:50:07.342Z,6.45
2023-02-04T16:52:34.127Z,6.32
2023-02-04T16:55:01.066Z,5.57
2023-02-04T16:57:31.494Z,6.72
2023-02-04T16:59:58.057Z,6.03
2023-02-04T17:02:24.589Z,5.95
2023-02-04T23:27:43.757Z,9.38
2023-02-04T23:30:10.954Z,10.63
2023-02-04T23:32:37.491Z,10.88
2023-02-04T23:35:04.182Z,10.70
2023-02-04T23:37:32.578Z,11.35
2023-02-04T23:39:59.516Z,11.63
2023-02-04T23:42:26.387Z,12.15
2023-02-04T23:44:52.932Z,12.32
2023-02-04T23:47:22.624Z,12.70
2023-02-04T23:49:49.250Z,12.82
2023-02-04T23:52:16.000Z,11.85
2023-02-04T23:54:42.842Z,12.07
2023-02-04T23:57:13.589Z,12.07
2023-02-04T23:59:42.917Z,12.95
